Time;durP1;ratioP1;P1;durP2;ratioP2;P2;SDS_P1;SDS_P2;PMS_P1;PMS_P2;Temp;Humidity;BMP_temperature;BMP_pressure;BME280_temperature;BME280_humidity;BME280_pressure;Samples;Min_cycle;Max_cycle;Signal;HPM_P1;HPM_P2
2021/03/01 00:02:05;;;;;;;19.73;11.63;;;6.70;99.90;;;;;;5053883;28;20439;-49
2021/03/01 00:04:31;;;;;;;15.77;9.53;;;6.10;99.90;;;;;;5053242;28;20459;-48
2021/03/01 00:06:57;;;;;;;19.90;10.90;;;6.70;99.90;;;;;;5053480;28;20440;-49
2021/03/01 00:09:23;;;;;;;14.40;10.13;;;6.70;99.90;;;;;;5053434;28;20809;-49
2021/03/01 00:11:50;;;;;;;18.00;9.80;;;6.80;99.90;;;;;;5052273;28;20439;-49
2021/03/01 00:14:16;;;;;;;13.83;9.30;;;7.10;99.90;;;;;;5053358;28;20462;-49
2021/03/01 00:16:43;;;;;;;16.77;10.07;;;6.90;99.90;;;;;;5053256;28;20499;-48
2021/03/01 00:19:09;;;;;;;13.80;10.63;;;6.80;99.90;;;;;;5053436;28;20439;-49
2021/03/01 00:21:36;;;;;;;13.90;10.37;;;7.10;99.90;;;;;;5053364;28;20514;-49
2021/03/01 00:24:02;;;;;;;16.33;10.00;;;6.50;99.90;;;;;;5053070;28;20436;-49
2021/03/01 00:26:29;;;;;;;17.07;10.33;;;6.90;99.90;;;;;;5053422;28;20538;-49
2021/03/01 00:28:55;;;;;;;15.10;10.57;;;6.70;99.90;;;;;;5053472;28;20474;-49
2021/03/01 00:31:22;;;;;;;16.57;10.27;;;7.00;99.90;;;;;;5053155;28;20435;-48
2021/03/01 00:33:49;;;;;;;14.07;9.93;;;6.90;99.90;;;;;;5052965;28;20431;-48
2021/03/01 00:36:15;;;;;;;14.03;9.57;;;6.90;99.90;;;;;;5053629;28;20795;-48
2021/03/01 00:38:42;;;;;;;13.63;10.27;;;7.10;99.90;;;;;;5053172;28;20465;-49
2021/03/01 00:41:08;;;;;;;16.33;10.80;;;7.10;99.90;;;;;;5052966;28;20478;-49
2021/03/01 00:43:34;;;;;;;13.10;9.40;;;7.10;99.90;;;;;;5052641;28;21031;-49
2021/03/01 00:46:01;;;;;;;14.23;10.10;;;7.30;99.90;;;;;;5052836;28;20495;-49
2021/03/01 00:48:27;;;;;;;14.27;9.70;;;7.00;99.90;;;;;;5052696;28;20452;-49
2021/03/01 00:50:54;;;;;;;13.13;9.57;;;7.40;99.90;;;;;;5052544;28;20934;-49
2021/03/01 00:53:22;;;;;;;17.40;11.27;;;7.20;99.90;;;;;;5051294;28;20818;-50
2021/03/01 00:55:48;;;;;;;15.70;10.37;;;7.40;99.90;;;;;;5052880;28;20486;-49
2021/03/01 00:58:16;;;;;;;14.93;8.93;;;7.40;99.90;;;;;;5052626;28;20455;-49
2021/03/01 01:00:42;;;;;;;14.13;9.47;;;6.90;99.90;;;;;;5052637;28;20419;-49
2021/03/01 01:03:08;;;;;;;15.90;10.00;;;7.10;99.90;;;;;;5052260;28;20428;-49
2021/03/01 01:05:47;;;;;;;15.50;10.67;;;7.40;99.90;;;;;;5051188;28;20535;-48
2021/03/01 01:08:14;;;;;;;15.17;11.10;;;7.30;99.90;;;;;;5052471;28;20456;-49
2021/03/01 01:10:41;;;;;;;19.77;10.90;;;7.30;99.90;;;;;;5052463;28;20440;-48
2021/03/01 01:13:09;;;;;;;19.43;10.23;;;7.10;99.90;;;;;;5052281;28;20433;-49
2021/03/01 01:15:35;;;;;;;13.47;9.80;;;6.90;99.90;;;;;;5052303;28;20428;-49
2021/03/01 01:18:04;;;;;;;15.87;11.50;;;6.80;99.90;;;;;;5050857;28;20476;-49
2021/03/01 01:20:30;;;;;;;16.27;12.37;;;7.10;99.90;;;;;;5052455;28;20429;-49
2021/03/01 01:22:56;;;;;;;19.40;10.10;;;6.90;99.90;;;;;;5052285;28;20471;-49
2021/03/01 01:25:23;;;;;;;17.97;12.10;;;7.00;99.90;;;;;;5052069;28;20499;-49
2021/03/01 01:27:50;;;;;;;14.63;9.90;;;7.10;99.90;;;;;;5051949;28;20983;-47
2021/03/01 01:30:19;;;;;;;14.70;10.93;;;6.90;99.90;;;;;;5052110;28;20471;-48
2021/03/01 01:32:46;;;;;;;14.07;11.13;;;6.80;99.90;;;;;;5050160;28;20447;-48
2021/03/01 01:35:13;;;;;;;16.87;11.40;;;6.50;99.90;;;;;;5052049;28;20429;-48
2021/03/01 01:37:40;;;;;;;16.70;11.20;;;6.60;99.90;;;;;;5051747;28;20469;-50
2021/03/01 01:40:10;;;;;;;17.80;10.43;;;6.80;99.90;;;;;;5052185;28;20524;-49
2021/03/01 01:42:38;;;;;;;17.77;11.00;;;7.00;99.90;;;;;;5051028;28;20517;-49
2021/03/01 01:45:07;;;;;;;15.93;10.37;;;6.80;99.90;;;;;;5051845;28;20541;-49
2021/03/01 01:47:34;;;;;;;17.70;11.93;;;6.40;99.90;;;;;;5051917;28;20883;-49
2021/03/01 01:50:00;;;;;;;15.70;10.73;;;6.90;99.90;;;;;;5051893;28;20561;-49
2021/03/01 01:52:26;;;;;;;21.17;11.70;;;6.80;99.90;;;;;;5051662;28;20526;-50
2021/03/01 01:54:53;;;;;;;20.37;11.60;;;7.20;99.90;;;;;;5051892;28;20458;-49
2021/03/01 01:57:19;;;;;;;18.20;12.70;;;6.80;99.90;;;;;;5051784;28;20458;-49
2021/03/01 01:59:46;;;;;;;17.17;11.07;;;6.90;99.90;;;;;;5051769;28;20424;-49
2021/03/01 02:02:14;;;;;;;17.33;10.97;;;6.90;99.90;;;;;;5051605;28;20787;-49
2021/03/01 02:04:42;;;;;;;16.53;11.40;;;6.80;99.90;;;;;;5051575;28;20562;-50
2021/03/01 02:07:14;;;;;;;17.73;11.60;;;7.20;99.90;;;;;;5051468;28;20521;-49
2021/03/01 02:09:55;;;;;;;14.77;11.27;;;6.60;99.90;;;;;;5051519;28;20504;-49
2021/03/01 02:12:30;;;;;;;21.03;12.20;;;6.90;99.90;;;;;;5051332;28;20432;-49
2021/03/01 02:15:09;;;;;;;14.93;11.40;;;6.40;99.90;;;;;;5050178;28;20553;-49
2021/03/01 02:17:35;;;;;;;20.67;12.33;;;7.60;99.90;;;;;;5051403;28;20457;-50
2021/03/01 02:20:05;;;;;;;15.90;10.70;;;6.90;99.90;;;;;;5051678;28;20443;-49
2021/03/01 02:22:32;;;;;;;16.57;11.17;;;6.80;99.90;;;;;;5051145;28;20807;-49
2021/03/01 02:25:02;;;;;;;17.30;11.70;;;6.80;99.90;;;;;;5051214;28;20411;-49
2021/03/01 02:27:31;;;;;;;18.00;11.87;;;6.50;99.90;;;;;;5051164;28;20956;-50
2021/03/01 02:30:01;;;;;;;20.57;12.03;;;6.90;99.90;;;;;;5051367;28;20443;-49
2021/03/01 02:32:30;;;;;;;18.50;11.30;;;6.80;99.90;;;;;;5051212;28;20542;-49
2021/03/01 02:34:57;;;;;;;18.60;11.30;;;6.90;99.90;;;;;;5052072;28;20478;-49
2021/03/01 02:37:26;;;;;;;17.40;10.83;;;6.90;99.90;;;;;;5052522;28;20871;-50
2021/03/01 02:39:54;;;;;;;19.40;12.50;;;6.30;99.90;;;;;;5052479;28;20432;-49
2021/03/01 02:42:25;;;;;;;18.73;13.33;;;7.20;99.90;;;;;;5051181;28;20436;-49
2021/03/01 02:44:52;;;;;;;16.50;11.87;;;7.30;99.90;;;;;;5051980;28;20445;-49
2021/03/01 02:47:20;;;;;;;17.90;12.53;;;7.20;99.90;;;;;;5051481;28;20452;-49
2021/03/01 02:49:47;;;;;;;18.47;12.40;;;7.40;99.90;;;;;;5051230;28;20466;-49
2021/03/01 02:52:14;;;;;;;17.67;12.53;;;6.90;99.90;;;;;;5051306;28;20935;-49
2021/03/01 02:54:42;;;;;;;16.57;11.30;;;7.30;99.90;;;;;;5055047;28;20523;-48
2021/03/01 02:57:11;;;;;;;16.40;11.87;;;7.00;99.90;;;;;;5055435;28;20461;-48
2021/03/01 02:59:39;;;;;;;20.57;13.07;;;7.30;99.90;;;;;;5053919;28;20494;-49
2021/03/01 03:02:07;;;;;;;15.77;12.13;;;7.40;99.90;;;;;;5053772;28;20444;-49
2021/03/01 03:04:35;;;;;;;17.90;12.47;;;7.00;99.90;;;;;;5055750;28;20439;-49
2021/03/01 03:07:03;;;;;;;18.27;11.43;;;6.90;99.90;;;;;;5055531;28;20914;-50
2021/03/01 03:09:30;;;;;;;19.43;12.33;;;7.10;99.90;;;;;;5055294;28;20407;-49
2021/03/01 03:12:00;;;;;;;19.60;11.40;;;7.00;99.90;;;;;;5055342;28;20433;-49
2021/03/01 03:14:28;;;;;;;21.00;12.27;;;7.20;99.90;;;;;;5054896;28;20792;-49
2021/03/01 03:16:58;;;;;;;19.73;12.70;;;7.00;99.90;;;;;;5054994;28;20428;-48
2021/03/01 03:19:24;;;;;;;19.03;11.07;;;7.00;99.90;;;;;;5054943;28;20414;-49
2021/03/01 03:21:51;;;;;;;16.80;11.17;;;7.10;99.90;;;;;;5055059;28;20878;-48
2021/03/01 03:24:17;;;;;;;19.07;11.20;;;7.20;99.90;;;;;;5054433;28;20556;-49
2021/03/01 03:26:43;;;;;;;20.50;11.33;;;7.00;99.90;;;;;;5053421;28;20480;-48
2021/03/01 03:29:09;;;;;;;16.90;12.33;;;7.30;99.90;;;;;;5053361;28;20454;-49
2021/03/01 03:31:37;;;;;;;23.13;12.40;;;6.90;99.90;;;;;;5054512;28;20921;-49
2021/03/01 03:34:04;;;;;;;19.60;11.73;;;7.20;99.90;;;;;;5053847;28;20425;-49
2021/03/01 03:36:41;;;;;;;16.53;11.70;;;7.40;99.90;;;;;;5054340;28;20442;-49
2021/03/01 03:39:10;;;;;;;17.87;11.90;;;7.10;99.90;;;;;;5054338;28;20538;-49
2021/03/01 03:41:38;;;;;;;21.47;11.67;;;6.70;99.90;;;;;;5053984;28;20429;-49
2021/03/01 03:44:05;;;;;;;18.63;12.83;;;7.10;99.90;;;;;;5053507;28;20514;-49
2021/03/01 03:46:32;;;;;;;20.67;12.57;;;6.80;99.90;;;;;;5053998;28;20480;-49
2021/03/01 03:49:00;;;;;;;21.30;11.70;;;6.80;99.90;;;;;;5053799;28;20982;-49
2021/03/01 03:51:29;;;;;;;18.40;12.23;;;6.90;99.90;;;;;;5053736;28;20424;-49
2021/03/01 03:54:00;;;;;;;17.57;10.63;;;6.90;99.90;;;;;;5053438;28;20990;-49
2021/03/01 03:56:28;;;;;;;18.60;12.20;;;7.10;99.90;;;;;;5053835;28;20439;-49
2021/03/01 03:58:57;;;;;;;20.33;13.20;;;7.30;99.90;;;;;;5053849;28;20462;-49
2021/03/01 04:01:26;;;;;;;26.50;13.63;;;6.80;99.90;;;;;;5053785;28;20439;-50
2021/03/01 04:03:54;;;;;;;22.87;13.33;;;7.20;99.90;;;;;;5053336;28;20475;-50
2021/03/01 04:06:24;;;;;;;20.93;13.57;;;6.90;99.90;;;;;;5053345;28;20500;-50
2021/03/01 04:08:52;;;;;;;18.73;12.53;;;6.80;99.90;;;;;;5051986;28;20853;-49
2021/03/01 04:11:20;;;;;;;18.40;12.40;;;7.20;99.90;;;;;;5052071;28;20954;-49
2021/03/01 04:13:48;;;;;;;17.77;12.07;;;7.00;99.90;;;;;;5053053;28;20536;-49
2021/03/01 04:16:16;;;;;;;29.57;13.37;;;6.80;99.90;;;;;;5053661;28;20449;-49
2021/03/01 04:18:45;;;;;;;21.37;13.53;;;6.90;99.90;;;;;;5053240;28;20931;-50
2021/03/01 04:21:12;;;;;;;22.03;13.37;;;6.80;99.90;;;;;;5053351;28;20863;-49
2021/03/01 04:23:42;;;;;;;18.57;12.60;;;7.20;99.90;;;;;;5053048;28;20782;-49
2021/03/01 04:26:08;;;;;;;20.03;12.67;;;7.10;99.90;;;;;;5053370;28;20516;-49
2021/03/01 04:28:36;;;;;;;19.60;13.70;;;6.80;99.90;;;;;;5053216;28;20452;-49
2021/03/01 04:31:05;;;;;;;17.00;12.70;;;6.60;99.90;;;;;;5053207;28;20455;-50
2021/03/01 04:33:34;;;;;;;21.20;12.90;;;7.10;99.90;;;;;;5052797;28;20490;-48
2021/03/01 04:36:01;;;;;;;22.93;13.73;;;6.90;99.90;;;;;;5053203;28;20434;-49
2021/03/01 04:38:27;;;;;;;24.30;13.83;;;6.50;99.90;;;;;;5067223;22;20596;-45
2021/03/01 04:40:55;;;;;;;24.10;14.13;;;6.90;99.90;;;;;;5052887;28;20521;-46
2021/03/01 04:43:23;;;;;;;21.03;13.90;;;7.10;99.90;;;;;;5052492;28;20522;-45
2021/03/01 04:45:51;;;;;;;20.60;13.37;;;6.80;99.90;;;;;;5052752;28;20983;-45
2021/03/01 04:48:18;;;;;;;20.77;13.47;;;6.70;99.90;;;;;;5034983;28;20467;-45
2021/03/01 04:50:47;;;;;;;20.53;13.30;;;6.80;99.90;;;;;;5052757;28;20416;-45
2021/03/01 04:53:15;;;;;;;19.90;13.40;;;6.70;99.90;;;;;;5052271;28;20425;-45
2021/03/01 04:55:42;;;;;;;23.27;14.03;;;6.80;99.90;;;;;;5052702;28;20783;-46
2021/03/01 04:58:10;;;;;;;23.10;14.53;;;7.00;99.90;;;;;;5052183;28;20547;-46
2021/03/01 05:00:37;;;;;;;25.87;13.30;;;6.90;99.90;;;;;;5052645;28;20464;-46
2021/03/01 05:03:06;;;;;;;24.40;14.00;;;6.90;99.90;;;;;;5052147;28;20443;-46
2021/03/01 05:05:33;;;;;;;27.50;14.07;;;6.80;99.90;;;;;;5052351;28;20850;-45
2021/03/01 05:08:02;;;;;;;22.77;14.20;;;6.50;99.90;;;;;;5052274;28;20439;-45
2021/03/01 05:10:29;;;;;;;22.47;14.97;;;6.90;99.90;;;;;;5052627;28;20439;-46
2021/03/01 05:12:55;;;;;;;23.20;14.10;;;6.60;99.90;;;;;;5056718;28;20479;-46
2021/03/01 05:15:22;;;;;;;29.43;14.60;;;6.50;99.90;;;;;;5057698;28;20431;-46
2021/03/01 05:17:49;;;;;;;28.73;14.93;;;6.50;99.90;;;;;;5056612;28;20455;-46
2021/03/01 05:20:16;;;;;;;23.30;14.10;;;6.50;99.90;;;;;;5057345;28;20983;-46
2021/03/01 05:22:42;;;;;;;26.77;14.40;;;6.60;99.90;;;;;;5039478;28;20440;-46
2021/03/01 05:25:09;;;;;;;26.03;14.90;;;7.00;99.90;;;;;;5051695;28;20436;-46
2021/03/01 05:27:36;;;;;;;28.67;16.60;;;6.60;99.90;;;;;;5034056;28;21038;-45
2021/03/01 05:30:05;;;;;;;27.37;14.47;;;6.70;99.90;;;;;;5051830;28;20435;-46
2021/03/01 05:32:32;;;;;;;29.30;16.27;;;6.60;99.90;;;;;;5033721;28;20431;-46
2021/03/01 05:34:58;;;;;;;20.20;15.17;;;6.80;99.90;;;;;;5051733;28;20885;-46
2021/03/01 05:37:25;;;;;;;29.73;15.57;;;6.30;99.90;;;;;;5051593;28;20479;-46
2021/03/01 05:39:51;;;;;;;21.30;14.83;;;6.00;99.90;;;;;;5051717;28;20539;-46
2021/03/01 05:42:18;;;;;;;25.27;15.03;;;6.60;99.90;;;;;;5033642;28;20530;-46
2021/03/01 05:44:45;;;;;;;24.60;14.90;;;6.60;99.90;;;;;;5051765;28;20439;-46
2021/03/01 05:47:12;;;;;;;24.40;16.03;;;6.50;99.90;;;;;;5051793;28;20838;-46
2021/03/01 05:49:41;;;;;;;27.87;17.00;;;6.60;99.90;;;;;;5051730;28;20435;-46
2021/03/01 05:52:09;;;;;;;29.27;17.13;;;6.70;99.90;;;;;;5051605;28;20482;-46
2021/03/01 05:54:36;;;;;;;25.67;14.93;;;6.60;99.90;;;;;;5051237;28;20502;-46
2021/03/01 05:57:05;;;;;;;27.10;15.27;;;6.70;99.90;;;;;;5051534;28;20920;-45
2021/03/01 05:59:31;;;;;;;26.60;15.77;;;6.80;99.90;;;;;;5051413;28;20497;-46
2021/03/01 06:01:58;;;;;;;50.83;16.50;;;7.00;99.90;;;;;;5051693;28;20921;-46
2021/03/01 06:04:25;;;;;;;29.47;17.73;;;7.00;99.90;;;;;;5033256;28;20482;-46
2021/03/01 06:06:52;;;;;;;29.00;15.83;;;6.70;99.90;;;;;;5033517;28;20559;-46
2021/03/01 06:09:19;;;;;;;25.67;16.33;;;6.60;99.90;;;;;;5051558;28;20460;-46
2021/03/01 06:11:47;;;;;;;26.10;15.87;;;6.90;99.90;;;;;;5051422;28;20411;-46
2021/03/01 06:14:13;;;;;;;26.30;16.47;;;6.70;99.90;;;;;;5051326;28;20442;-46
2021/03/01 06:17:11;;;;;;;25.93;16.73;;;6.80;99.90;;;;;;5051347;28;20432;-46
2021/03/01 06:19:46;;;;;;;27.30;16.83;;;6.80;99.90;;;;;;5051361;28;20451;-46
2021/03/01 06:22:12;;;;;;;31.40;16.70;;;7.00;99.90;;;;;;5051187;28;20470;-46
2021/03/01 06:24:38;;;;;;;25.23;15.23;;;6.90;99.90;;;;;;5051176;28;20803;-45
2021/03/01 06:27:05;;;;;;;30.07;16.93;;;6.90;99.90;;;;;;5050827;28;20542;-46
2021/03/01 06:29:32;;;;;;;31.23;17.00;;;6.90;99.90;;;;;;5054912;28;20463;-46
2021/03/01 06:31:58;;;;;;;37.03;17.30;;;6.90;99.90;;;;;;5055044;28;20955;-46
2021/03/01 06:34:29;;;;;;;30.10;17.53;;;6.70;99.90;;;;;;5055057;28;20444;-46
2021/03/01 06:37:01;;;;;;;27.17;18.07;;;6.90;99.90;;;;;;5054983;28;20531;-46
2021/03/01 06:39:30;;;;;;;27.57;16.23;;;6.40;99.90;;;;;;5054911;28;20468;-46
2021/03/01 06:41:57;;;;;;;25.07;16.60;;;6.80;99.90;;;;;;5055060;28;20456;-46
2021/03/01 06:44:23;;;;;;;27.50;15.57;;;6.50;99.90;;;;;;5054239;28;20440;-47
2021/03/01 06:46:51;;;;;;;28.13;17.07;;;7.20;99.90;;;;;;5054898;28;20533;-46
2021/03/01 06:49:19;;;;;;;27.53;15.83;;;7.00;99.90;;;;;;5055234;28;20460;-47
2021/03/01 06:51:46;;;;;;;24.30;15.73;;;7.10;99.90;;;;;;5056037;28;20613;-46
2021/03/01 06:54:21;;;;;;;28.97;17.00;;;7.30;99.90;;;;;;5054228;28;20432;-46
2021/03/01 06:56:48;;;;;;;32.87;16.37;;;7.00;99.90;;;;;;5054763;28;20432;-45
2021/03/01 06:59:15;;;;;;;30.27;16.47;;;7.00;99.90;;;;;;5055379;28;20451;-45
2021/03/01 07:01:47;;;;;;;26.07;15.00;;;7.20;99.90;;;;;;5038093;28;20431;-45
2021/03/01 07:04:21;;;;;;;35.80;17.40;;;7.10;99.90;;;;;;5057459;28;20437;-46
2021/03/01 07:06:49;;;;;;;33.23;17.03;;;6.60;99.90;;;;;;5056802;28;20480;-46
2021/03/01 07:09:17;;;;;;;32.63;16.60;;;7.50;99.90;;;;;;5056766;28;20456;-47
2021/03/01 07:11:44;;;;;;;24.77;16.43;;;7.30;99.90;;;;;;5056167;28;20813;-47
2021/03/01 07:14:12;;;;;;;30.63;16.17;;;7.10;99.90;;;;;;5055366;28;20443;-46
2021/03/01 07:16:40;;;;;;;28.20;15.53;;;7.30;99.90;;;;;;5056429;28;20441;-46
2021/03/01 07:19:09;;;;;;;28.60;15.97;;;7.50;99.90;;;;;;5056272;28;20479;-46
2021/03/01 07:21:37;;;;;;;32.60;16.50;;;7.20;99.90;;;;;;5056473;28;20783;-47
2021/03/01 07:24:05;;;;;;;25.20;15.90;;;7.50;99.90;;;;;;5055923;28;20444;-45
2021/03/01 07:26:32;;;;;;;37.43;17.10;;;7.40;99.90;;;;;;5057104;28;20609;-46
2021/03/01 07:29:05;;;;;;;31.20;14.67;;;7.60;99.90;;;;;;5057072;28;20855;-45
2021/03/01 07:31:34;;;;;;;27.83;15.07;;;7.50;99.90;;;;;;5037957;28;20457;-45
2021/03/01 07:34:06;;;;;;;27.17;15.10;;;7.60;99.90;;;;;;5054680;28;20525;-45
2021/03/01 07:36:32;;;;;;;25.43;15.40;;;7.70;99.90;;;;;;5054049;28;20910;-47
2021/03/01 07:39:01;;;;;;;30.17;16.70;;;7.10;99.90;;;;;;5054220;28;20480;-46
2021/03/01 07:41:28;;;;;;;27.33;15.50;;;7.40;99.90;;;;;;5054345;28;20441;-45
2021/03/01 07:43:56;;;;;;;24.70;15.83;;;7.80;99.90;;;;;;5055623;28;20488;-46
2021/03/01 07:46:26;;;;;;;25.83;15.30;;;7.90;99.90;;;;;;5054898;28;20781;-47
2021/03/01 07:48:52;;;;;;;26.90;16.23;;;7.90;99.90;;;;;;5055003;28;20457;-46
2021/03/01 07:51:39;;;;;;;25.60;15.13;;;7.90;99.90;;;;;;5053567;28;20520;-46
2021/03/01 07:54:05;;;;;;;27.67;15.30;;;7.30;99.90;;;;;;5053297;28;20411;-46
2021/03/01 07:56:48;;;;;;;33.80;17.73;;;7.90;99.90;;;;;;5054312;28;20520;-46
2021/03/01 07:59:29;;;;;;;25.00;15.60;;;7.70;99.90;;;;;;5053679;28;20951;-46
2021/03/01 08:02:17;;;;;;;29.63;16.23;;;8.00;99.90;;;;;;5053369;28;20479;-46
2021/03/01 08:04:44;;;;;;;26.67;15.97;;;7.90;99.90;;;;;;5053285;28;20441;-48
2021/03/01 08:07:11;;;;;;;24.60;15.53;;;8.00;99.90;;;;;;5053035;28;20481;-45
2021/03/01 08:09:51;;;;;;;28.53;16.03;;;7.80;99.90;;;;;;5053301;28;20426;-46
2021/03/01 08:12:56;;;;;;;27.70;19.97;;;7.80;99.90;;;;;;5053263;28;20523;-46
2021/03/01 08:15:24;;;;;;;30.30;20.70;;;8.00;99.90;;;;;;5051959;28;20430;-45
2021/03/01 08:17:51;;;;;;;30.60;17.87;;;7.90;99.90;;;;;;5052530;28;20496;-46
2021/03/01 08:20:53;;;;;;;26.23;16.07;;;7.80;99.90;;;;;;5052775;28;20711;-45
2021/03/01 08:23:30;;;;;;;37.50;17.90;;;7.80;99.90;;;;;;5031552;28;20454;-46
2021/03/01 08:25:59;;;;;;;29.30;18.17;;;7.80;99.90;;;;;;5052807;28;20452;-47
2021/03/01 08:28:54;;;;;;;33.10;22.23;;;7.50;99.90;;;;;;5053162;28;20460;-47
2021/03/01 08:31:29;;;;;;;39.70;22.43;;;8.10;99.90;;;;;;5052772;28;20904;-46
2021/03/01 08:34:30;;;;;;;40.90;24.57;;;8.40;99.90;;;;;;5034967;28;20416;-46
2021/03/01 08:36:57;;;;;;;30.30;22.40;;;8.00;99.90;;;;;;5052675;28;20437;-47
2021/03/01 08:40:09;;;;;;;29.97;20.83;;;8.10;99.90;;;;;;5053250;28;20516;-47
2021/03/01 08:42:54;;;;;;;44.77;25.67;;;8.10;99.90;;;;;;5011107;28;20465;-47
2021/03/01 08:45:24;;;;;;;28.93;21.37;;;7.90;99.90;;;;;;5052473;28;20436;-46
2021/03/01 08:47:52;;;;;;;37.53;26.77;;;8.10;99.90;;;;;;5052642;28;20655;-47
2021/03/01 08:50:23;;;;;;;33.87;23.70;;;8.00;99.90;;;;;;5052783;28;20430;-46
2021/03/01 08:52:50;;;;;;;29.63;22.10;;;8.20;99.90;;;;;;5034297;28;20533;-46
2021/03/01 08:55:18;;;;;;;35.33;23.37;;;7.90;99.90;;;;;;5052796;28;20436;-46
2021/03/01 08:58:06;;;;;;;50.07;26.37;;;8.00;99.90;;;;;;5052136;28;20454;-46
2021/03/01 09:00:34;;;;;;;34.57;23.87;;;8.30;99.90;;;;;;5052295;28;20858;-46
2021/03/01 09:03:27;;;;;;;37.90;23.80;;;8.20;99.90;;;;;;5051530;28;20929;-46
2021/03/01 09:06:02;;;;;;;36.37;24.17;;;7.80;99.90;;;;;;5052026;28;20545;-46
2021/03/01 09:08:34;;;;;;;36.40;24.80;;;8.50;99.90;;;;;;5051645;28;20459;-47
2021/03/01 09:11:03;;;;;;;35.20;23.90;;;8.30;99.90;;;;;;5033778;28;20460;-46
2021/03/01 09:13:30;;;;;;;28.50;20.77;;;8.50;99.90;;;;;;5051594;28;20480;-46
2021/03/01 09:16:06;;;;;;;37.10;25.33;;;8.20;99.90;;;;;;5051783;28;20951;-46
2021/03/01 09:18:33;;;;;;;29.70;20.10;;;8.20;99.90;;;;;;5051906;28;20477;-47
2021/03/01 09:21:00;;;;;;;34.43;21.83;;;8.50;99.90;;;;;;5052805;28;20427;-47
2021/03/01 09:23:35;;;;;;;30.77;23.70;;;8.50;99.90;;;;;;5052242;28;20514;-46
2021/03/01 09:26:03;;;;;;;28.03;22.03;;;8.20;99.90;;;;;;5052201;28;20476;-46
2021/03/01 09:28:32;;;;;;;27.93;18.50;;;7.60;99.90;;;;;;5051724;28;20503;-47
2021/03/01 09:31:06;;;;;;;34.43;20.90;;;8.40;99.90;;;;;;5052094;28;20796;-47
2021/03/01 09:33:33;;;;;;;39.10;25.23;;;8.30;99.90;;;;;;5051392;28;20785;-46
2021/03/01 09:36:01;;;;;;;33.33;22.53;;;8.50;99.90;;;;;;5051234;28;20445;-46
2021/03/01 09:38:28;;;;;;;29.20;19.77;;;8.40;99.90;;;;;;5051279;28;20959;-46
2021/03/01 09:41:03;;;;;;;32.40;24.70;;;8.40;99.90;;;;;;5033529;28;20446;-45
2021/03/01 09:43:30;;;;;;;31.13;24.40;;;8.70;99.90;;;;;;5051144;28;20875;-45
2021/03/01 09:45:58;;;;;;;38.23;23.83;;;8.80;99.90;;;;;;5050813;28;20474;-46
2021/03/01 09:48:27;;;;;;;37.50;19.30;;;8.50;99.90;;;;;;5050895;28;20466;-45
2021/03/01 09:50:56;;;;;;;29.27;19.83;;;8.90;99.90;;;;;;5050795;28;20430;-46
2021/03/01 09:53:24;;;;;;;27.60;17.30;;;8.90;99.90;;;;;;5050255;28;20437;-47
2021/03/01 09:55:52;;;;;;;29.80;19.77;;;8.70;99.90;;;;;;5050656;28;20434;-46
2021/03/01 09:58:27;;;;;;;35.37;25.80;;;8.60;99.90;;;;;;5032730;28;20588;-46
2021/03/01 10:01:12;;;;;;;32.17;25.20;;;8.70;99.90;;;;;;5051483;28;20541;-46
2021/03/01 10:03:41;;;;;;;37.47;25.93;;;8.80;99.90;;;;;;5050503;28;20445;-47
2021/03/01 10:06:09;;;;;;;32.03;24.90;;;8.90;99.90;;;;;;5050943;28;20886;-46
2021/03/01 10:08:37;;;;;;;31.63;24.57;;;8.70;99.90;;;;;;5050702;28;20557;-46
2021/03/01 10:11:04;;;;;;;30.37;23.03;;;8.40;99.90;;;;;;5051163;28;20871;-46
2021/03/01 10:13:33;;;;;;;34.03;25.10;;;8.40;99.90;;;;;;5050426;28;20438;-46
2021/03/01 10:16:02;;;;;;;30.80;24.30;;;8.60;99.90;;;;;;5051161;28;20450;-46
2021/03/01 10:18:31;;;;;;;34.03;25.87;;;8.30;99.90;;;;;;5050688;28;20447;-46
2021/03/01 10:21:01;;;;;;;36.20;27.30;;;8.30;99.90;;;;;;5050782;28;20438;-46
2021/03/01 10:23:32;;;;;;;39.80;28.17;;;8.30;99.90;;;;;;5050116;28;20431;-46
2021/03/01 10:26:18;;;;;;;37.13;28.93;;;8.50;99.90;;;;;;5050542;28;20467;-46
2021/03/01 10:28:56;;;;;;;34.10;27.53;;;8.60;99.90;;;;;;5050047;28;20541;-46
2021/03/01 10:31:24;;;;;;;43.00;31.20;;;8.70;99.90;;;;;;5050047;28;20524;-46
2021/03/01 10:34:01;;;;;;;38.43;26.43;;;8.90;99.90;;;;;;5050039;28;20446;-46
2021/03/01 10:36:33;;;;;;;38.30;27.87;;;8.80;99.90;;;;;;5050053;28;20445;-46
2021/03/01 10:39:16;;;;;;;33.37;25.87;;;8.90;99.90;;;;;;5064216;22;20880;-49
2021/03/01 10:41:45;;;;;;;36.37;23.40;;;8.50;99.90;;;;;;5050497;28;20533;-49
2021/03/01 10:44:13;;;;;;;33.63;25.90;;;8.60;99.90;;;;;;5050164;28;20544;-50
2021/03/01 10:46:46;;;;;;;39.03;25.83;;;8.40;99.90;;;;;;5050046;28;20515;-48
2021/03/01 10:49:19;;;;;;;28.77;21.30;;;8.40;99.90;;;;;;5050433;28;20477;-49
2021/03/01 10:51:47;;;;;;;40.47;23.60;;;8.50;99.90;;;;;;5050771;28;20442;-48
2021/03/01 10:54:14;;;;;;;29.43;25.17;;;8.50;99.90;;;;;;5049687;28;20510;-48
2021/03/01 10:56:41;;;;;;;30.43;24.60;;;7.80;99.90;;;;;;5049972;28;20434;-49
2021/03/01 10:59:08;;;;;;;30.00;22.93;;;8.50;99.90;;;;;;5050401;28;20999;-50
2021/03/01 11:01:37;;;;;;;33.33;25.00;;;8.30;99.90;;;;;;5050968;28;20441;-50
2021/03/01 11:04:04;;;;;;;30.10;24.50;;;8.60;99.90;;;;;;5050728;28;20445;-49
2021/03/01 11:06:32;;;;;;;27.93;22.33;;;8.50;99.90;;;;;;5051249;28;20907;-49
2021/03/01 11:09:00;;;;;;;32.40;23.83;;;8.70;99.90;;;;;;5051029;28;20446;-48
2021/03/01 11:11:27;;;;;;;33.30;23.63;;;8.80;99.90;;;;;;5055565;28;20479;-48
2021/03/01 11:13:54;;;;;;;28.70;22.20;;;9.10;99.90;;;;;;5050050;28;20616;-49
2021/03/01 11:16:21;;;;;;;26.93;21.90;;;9.20;99.90;;;;;;5053153;28;20441;-49
2021/03/01 11:18:48;;;;;;;26.40;20.27;;;9.10;99.90;;;;;;5035945;28;20466;-50
2021/03/01 11:21:15;;;;;;;26.60;18.93;;;9.00;99.90;;;;;;5054026;28;20428;-50
2021/03/01 11:23:41;;;;;;;23.37;17.60;;;9.10;99.90;;;;;;5053761;28;20517;-50
2021/03/01 11:26:10;;;;;;;24.80;17.90;;;9.10;99.90;;;;;;5053850;28;20478;-49
2021/03/01 11:28:37;;;;;;;21.07;16.90;;;9.20;99.90;;;;;;5053655;28;20532;-49
2021/03/01 11:31:04;;;;;;;26.20;16.60;;;9.40;99.90;;;;;;5053664;28;20927;-49
2021/03/01 11:33:30;;;;;;;25.63;16.53;;;9.50;99.90;;;;;;5052978;28;20859;-50
2021/03/01 11:35:57;;;;;;;23.60;17.40;;;9.10;99.90;;;;;;5035739;28;20470;-49
2021/03/01 11:38:25;;;;;;;23.03;16.67;;;9.20;99.90;;;;;;5053176;28;20469;-49
2021/03/01 11:40:53;;;;;;;20.17;16.37;;;9.20;99.90;;;;;;5053089;28;20435;-49
2021/03/01 11:43:21;;;;;;;22.23;16.07;;;9.30;99.90;;;;;;5052882;28;20962;-49
2021/03/01 11:45:48;;;;;;;22.33;15.17;;;9.00;99.90;;;;;;5053672;28;20450;-48
2021/03/01 11:48:16;;;;;;;25.43;17.43;;;9.00;99.90;;;;;;5053398;28;20826;-49
2021/03/01 11:50:45;;;;;;;25.00;18.37;;;9.30;99.90;;;;;;5053812;28;20541;-49
2021/03/01 11:53:14;;;;;;;27.30;16.07;;;8.90;99.90;;;;;;5053855;28;20521;-49
2021/03/01 11:55:41;;;;;;;25.50;16.53;;;8.80;99.90;;;;;;5053625;28;20985;-49
2021/03/01 11:58:08;;;;;;;29.33;18.80;;;8.80;99.90;;;;;;5053181;28;20442;-50
2021/03/01 12:00:38;;;;;;;23.67;13.93;;;8.70;99.90;;;;;;5053122;28;20431;-49
2021/03/01 12:03:06;;;;;;;21.50;13.93;;;9.10;99.90;;;;;;5052283;28;20423;-50
2021/03/01 12:05:33;;;;;;;28.43;15.77;;;9.20;99.90;;;;;;5052878;28;20529;-50
2021/03/01 12:08:00;;;;;;;21.60;14.80;;;9.10;99.90;;;;;;5052727;28;20479;-51
2021/03/01 12:10:27;;;;;;;30.07;16.43;;;9.30;99.90;;;;;;5052950;28;20549;-49
2021/03/01 12:12:54;;;;;;;19.93;14.37;;;9.30;99.90;;;;;;5052761;28;20810;-50
2021/03/01 12:15:20;;;;;;;21.83;14.83;;;9.20;99.90;;;;;;5052604;28;20949;-49
2021/03/01 12:17:47;;;;;;;19.23;12.80;;;9.30;99.90;;;;;;5052388;28;20438;-49
2021/03/01 12:20:14;;;;;;;31.17;15.27;;;9.10;99.90;;;;;;5052647;28;20431;-51
2021/03/01 12:22:40;;;;;;;21.30;12.77;;;9.40;99.90;;;;;;5051548;28;20471;-50
2021/03/01 12:25:07;;;;;;;21.33;12.87;;;9.20;99.90;;;;;;5052085;28;20553;-49
2021/03/01 12:27:34;;;;;;;18.60;12.43;;;9.30;99.90;;;;;;5051614;28;21040;-50
2021/03/01 12:30:00;;;;;;;15.27;12.60;;;8.70;99.90;;;;;;5052200;28;20496;-48
2021/03/01 12:32:27;;;;;;;18.27;13.70;;;8.60;99.90;;;;;;5051681;28;20446;-49
2021/03/01 12:34:56;;;;;;;17.17;12.50;;;9.70;99.90;;;;;;5052070;28;20423;-49
2021/03/01 12:37:22;;;;;;;17.57;13.80;;;9.30;99.90;;;;;;5051760;28;20427;-50
2021/03/01 12:39:49;;;;;;;24.33;15.43;;;9.40;99.90;;;;;;5052026;28;20466;-49
2021/03/01 12:42:15;;;;;;;24.90;14.33;;;8.80;99.90;;;;;;5034368;28;20508;-49
2021/03/01 12:44:41;;;;;;;18.47;14.47;;;8.80;99.90;;;;;;5051703;28;20483;-49
2021/03/01 12:47:08;;;;;;;22.67;14.20;;;8.60;99.90;;;;;;5051754;28;20543;-50
2021/03/01 12:49:34;;;;;;;18.70;13.17;;;8.70;99.90;;;;;;5051652;28;20533;-50